sensor_id;sensor_type;location;lat;lon;timestamp;P1;durP1;ratioP1;P2;durP2;ratioP2
73776;SDS011;62088;50.240;2.696;2023-05-07T00:02:17;8.30;;;3.42;;
73776;SDS011;62088;50.240;2.696;2023-05-07T00:04:44;5.57;;;3.17;;
73776;SDS011;62088;50.240;2.696;2023-05-07T00:07:11;8.05;;;3.50;;
73776;SDS011;62088;50.240;2.696;2023-05-07T00:09:38;6.45;;;3.38;;
73776;SDS011;62088;50.240;2.696;2023-05-07T00:12:06;6.25;;;3.60;;
73776;SDS011;62088;50.240;2.696;2023-05-07T00:14:34;6.00;;;3.00;;
73776;SDS011;62088;50.240;2.696;2023-05-07T00:17:01;11.68;;;3.67;;
73776;SDS011;62088;50.240;2.696;2023-05-07T00:19:28;6.55;;;3.30;;
73776;SDS011;62088;50.240;2.696;2023-05-07T00:21:55;6.75;;;3.22;;
73776;SDS011;62088;50.240;2.696;2023-05-07T00:24:22;8.23;;;3.40;;
73776;SDS011;62088;50.240;2.696;2023-05-07T00:26:49;5.43;;;3.03;;
73776;SDS011;62088;50.240;2.696;2023-05-07T00:29:17;5.85;;;2.88;;
73776;SDS011;62088;50.240;2.696;2023-05-07T00:31:44;5.25;;;3.08;;
73776;SDS011;62088;50.240;2.696;2023-05-07T00:34:11;4.70;;;2.67;;
73776;SDS011;62088;50.240;2.696;2023-05-07T00:36:38;5.68;;;2.65;;
73776;SDS011;62088;50.240;2.696;2023-05-07T00:39:05;5.75;;;2.28;;
73776;SDS011;62088;50.240;2.696;2023-05-07T00:41:33;5.80;;;2.88;;
73776;SDS011;62088;50.240;2.696;2023-05-07T00:44:00;5.90;;;2.58;;
73776;SDS011;62088;50.240;2.696;2023-05-07T00:46:28;6.05;;;2.40;;
73776;SDS011;62088;50.240;2.696;2023-05-07T00:48:57;7.30;;;2.80;;
73776;SDS011;62088;50.240;2.696;2023-05-07T00:51:25;5.53;;;2.38;;
73776;SDS011;62088;50.240;2.696;2023-05-07T00:53:55;5.15;;;2.50;;
73776;SDS011;62088;50.240;2.696;2023-05-07T00:56:22;7.10;;;2.50;;
73776;SDS011;62088;50.240;2.696;2023-05-07T00:58:50;6.43;;;2.97;;
73776;SDS011;62088;50.240;2.696;2023-05-07T01:01:18;5.82;;;2.47;;
73776;SDS011;62088;50.240;2.696;2023-05-07T01:03:45;6.72;;;2.67;;
73776;SDS011;62088;50.240;2.696;2023-05-07T01:06:12;4.78;;;2.25;;
73776;SDS011;62088;50.240;2.696;2023-05-07T01:08:43;9.52;;;2.60;;
73776;SDS011;62088;50.240;2.696;2023-05-07T01:11:11;5.10;;;2.50;;
73776;SDS011;62088;50.240;2.696;2023-05-07T01:13:38;4.78;;;2.60;;
73776;SDS011;62088;50.240;2.696;2023-05-07T01:16:06;4.95;;;2.55;;
73776;SDS011;62088;50.240;2.696;2023-05-07T01:18:36;9.60;;;2.70;;
73776;SDS011;62088;50.240;2.696;2023-05-07T01:21:04;5.35;;;2.67;;
73776;SDS011;62088;50.240;2.696;2023-05-07T01:23:31;7.57;;;2.53;;
73776;SDS011;62088;50.240;2.696;2023-05-07T01:26:02;4.55;;;2.40;;
73776;SDS011;62088;50.240;2.696;2023-05-07T01:28:31;5.38;;;2.40;;
73776;SDS011;62088;50.240;2.696;2023-05-07T01:31:02;5.15;;;2.42;;
73776;SDS011;62088;50.240;2.696;2023-05-07T01:33:34;8.32;;;2.78;;
73776;SDS011;62088;50.240;2.696;2023-05-07T01:36:04;5.95;;;2.60;;
73776;SDS011;62088;50.240;2.696;2023-05-07T01:38:33;5.97;;;2.60;;
73776;SDS011;62088;50.240;2.696;2023-05-07T01:41:01;4.38;;;2.28;;
73776;SDS011;62088;50.240;2.696;2023-05-07T01:43:31;7.95;;;2.83;;
73776;SDS011;62088;50.240;2.696;2023-05-07T01:45:58;6.32;;;2.55;;
73776;SDS011;62088;50.240;2.696;2023-05-07T01:48:26;4.95;;;2.50;;
73776;SDS011;62088;50.240;2.696;2023-05-07T01:50:55;7.38;;;2.95;;
73776;SDS011;62088;50.240;2.696;2023-05-07T01:53:22;4.50;;;2.40;;
73776;SDS011;62088;50.240;2.696;2023-05-07T01:55:49;4.40;;;2.60;;
73776;SDS011;62088;50.240;2.696;2023-05-07T01:58:16;7.55;;;2.70;;
73776;SDS011;62088;50.240;2.696;2023-05-07T02:00:43;5.22;;;2.28;;
73776;SDS011;62088;50.240;2.696;2023-05-07T02:03:10;7.22;;;2.90;;
73776;SDS011;62088;50.240;2.696;2023-05-07T02:05:44;7.18;;;2.80;;
73776;SDS011;62088;50.240;2.696;2023-05-07T02:08:22;6.55;;;2.38;;
73776;SDS011;62088;50.240;2.696;2023-05-07T02:10:49;6.43;;;2.40;;
73776;SDS011;62088;50.240;2.696;2023-05-07T02:13:17;6.45;;;3.33;;
73776;SDS011;62088;50.240;2.696;2023-05-07T02:15:46;6.43;;;3.28;;
73776;SDS011;62088;50.240;2.696;2023-05-07T02:18:17;6.97;;;3.40;;
73776;SDS011;62088;50.240;2.696;2023-05-07T02:20:44;6.60;;;3.15;;
73776;SDS011;62088;50.240;2.696;2023-05-07T02:23:11;8.70;;;3.78;;
73776;SDS011;62088;50.240;2.696;2023-05-07T02:25:38;6.60;;;3.58;;
73776;SDS011;62088;50.240;2.696;2023-05-07T02:28:05;9.55;;;4.32;;
73776;SDS011;62088;50.240;2.696;2023-05-07T02:30:43;8.23;;;3.80;;
73776;SDS011;62088;50.240;2.696;2023-05-07T02:33:10;5.57;;;3.60;;
73776;SDS011;62088;50.240;2.696;2023-05-07T02:35:39;8.45;;;4.05;;
73776;SDS011;62088;50.240;2.696;2023-05-07T02:38:06;8.98;;;4.55;;
73776;SDS011;62088;50.240;2.696;2023-05-07T02:40:34;7.78;;;4.28;;
73776;SDS011;62088;50.240;2.696;2023-05-07T02:43:05;9.10;;;4.03;;
73776;SDS011;62088;50.240;2.696;2023-05-07T02:45:32;6.80;;;3.97;;
73776;SDS011;62088;50.240;2.696;2023-05-07T02:48:01;9.73;;;4.50;;
73776;SDS011;62088;50.240;2.696;2023-05-07T02:50:28;7.10;;;4.60;;
73776;SDS011;62088;50.240;2.696;2023-05-07T02:52:55;7.78;;;4.22;;
73776;SDS011;62088;50.240;2.696;2023-05-07T02:55:22;9.50;;;4.50;;
73776;SDS011;62088;50.240;2.696;2023-05-07T02:57:50;8.43;;;3.88;;
73776;SDS011;62088;50.240;2.696;2023-05-07T03:00:18;5.32;;;3.55;;
73776;SDS011;62088;50.240;2.696;2023-05-07T03:02:53;7.15;;;3.85;;
73776;SDS011;62088;50.240;2.696;2023-05-07T03:05:20;8.25;;;3.75;;
73776;SDS011;62088;50.240;2.696;2023-05-07T03:07:47;5.63;;;3.72;;
73776;SDS011;62088;50.240;2.696;2023-05-07T03:10:15;5.75;;;3.33;;
73776;SDS011;62088;50.240;2.696;2023-05-07T03:12:42;5.03;;;3.38;;
73776;SDS011;62088;50.240;2.696;2023-05-07T03:15:13;7.57;;;4.00;;
73776;SDS011;62088;50.240;2.696;2023-05-07T03:17:40;8.75;;;3.90;;
73776;SDS011;62088;50.240;2.696;2023-05-07T03:20:07;8.07;;;4.00;;
73776;SDS011;62088;50.240;2.696;2023-05-07T03:22:37;7.40;;;4.13;;
73776;SDS011;62088;50.240;2.696;2023-05-07T03:25:04;9.05;;;4.20;;
73776;SDS011;62088;50.240;2.696;2023-05-07T03:27:32;8.07;;;3.78;;
73776;SDS011;62088;50.240;2.696;2023-05-07T03:29:59;6.95;;;4.18;;
73776;SDS011;62088;50.240;2.696;2023-05-07T03:32:26;8.65;;;4.40;;
73776;SDS011;62088;50.240;2.696;2023-05-07T03:34:53;7.22;;;3.65;;
73776;SDS011;62088;50.240;2.696;2023-05-07T03:37:22;8.70;;;4.07;;
73776;SDS011;62088;50.240;2.696;2023-05-07T03:39:49;8.10;;;3.88;;
73776;SDS011;62088;50.240;2.696;2023-05-07T03:42:17;6.32;;;3.50;;
73776;SDS011;62088;50.240;2.696;2023-05-07T03:44:47;8.70;;;4.00;;
73776;SDS011;62088;50.240;2.696;2023-05-07T03:47:14;9.80;;;4.60;;
73776;SDS011;62088;50.240;2.696;2023-05-07T03:49:42;12.52;;;5.18;;
73776;SDS011;62088;50.240;2.696;2023-05-07T03:52:09;7.35;;;4.70;;
73776;SDS011;62088;50.240;2.696;2023-05-07T03:54:37;8.18;;;4.57;;
73776;SDS011;62088;50.240;2.696;2023-05-07T03:57:04;9.23;;;4.93;;
73776;SDS011;62088;50.240;2.696;2023-05-07T03:59:31;8.32;;;5.55;;
73776;SDS011;62088;50.240;2.696;2023-05-07T04:01:58;9.30;;;5.68;;
73776;SDS011;62088;50.240;2.696;2023-05-07T04:04:28;10.10;;;5.53;;
73776;SDS011;62088;50.240;2.696;2023-05-07T04:06:59;8.95;;;5.00;;
73776;SDS011;62088;50.240;2.696;2023-05-07T04:09:28;7.72;;;4.85;;
73776;SDS011;62088;50.240;2.696;2023-05-07T04:11:56;8.05;;;5.38;;
73776;SDS011;62088;50.240;2.696;2023-05-07T04:14:23;7.60;;;4.60;;
73776;SDS011;62088;50.240;2.696;2023-05-07T04:16:50;8.32;;;5.07;;
73776;SDS011;62088;50.240;2.696;2023-05-07T04:19:17;9.07;;;5.95;;
73776;SDS011;62088;50.240;2.696;2023-05-07T04:21:47;9.73;;;5.35;;
73776;SDS011;62088;50.240;2.696;2023-05-07T04:24:14;8.68;;;5.13;;
73776;SDS011;62088;50.240;2.696;2023-05-07T04:26:42;9.48;;;5.40;;
73776;SDS011;62088;50.240;2.696;2023-05-07T04:29:09;13.90;;;5.53;;
73776;SDS011;62088;50.240;2.696;2023-05-07T04:31:36;8.20;;;4.68;;
73776;SDS011;62088;50.240;2.696;2023-05-07T04:34:03;7.63;;;4.22;;
73776;SDS011;62088;50.240;2.696;2023-05-07T04:36:30;8.00;;;5.07;;
73776;SDS011;62088;50.240;2.696;2023-05-07T04:39:03;9.80;;;5.93;;
73776;SDS011;62088;50.240;2.696;2023-05-07T04:41:30;11.25;;;4.97;;
73776;SDS011;62088;50.240;2.696;2023-05-07T04:43:59;9.18;;;5.05;;
73776;SDS011;62088;50.240;2.696;2023-05-07T04:46:29;11.48;;;5.55;;
73776;SDS011;62088;50.240;2.696;2023-05-07T04:48:57;9.63;;;6.28;;
73776;SDS011;62088;50.240;2.696;2023-05-07T04:51:24;7.25;;;5.72;;
73776;SDS011;62088;50.240;2.696;2023-05-07T04:53:52;9.60;;;5.40;;
73776;SDS011;62088;50.240;2.696;2023-05-07T04:56:19;10.68;;;6.43;;
73776;SDS011;62088;50.240;2.696;2023-05-07T04:58:47;9.40;;;5.15;;
73776;SDS011;62088;50.240;2.696;2023-05-07T05:01:17;7.90;;;5.18;;
73776;SDS011;62088;50.240;2.696;2023-05-07T05:03:44;10.10;;;6.13;;
73776;SDS011;62088;50.240;2.696;2023-05-07T05:06:11;8.90;;;5.97;;
73776;SDS011;62088;50.240;2.696;2023-05-07T05:08:38;9.35;;;4.80;;
73776;SDS011;62088;50.240;2.696;2023-05-07T05:11:06;7.07;;;4.82;;
73776;SDS011;62088;50.240;2.696;2023-05-07T05:13:35;7.32;;;5.03;;
73776;SDS011;62088;50.240;2.696;2023-05-07T05:16:09;6.78;;;5.00;;
73776;SDS011;62088;50.240;2.696;2023-05-07T05:18:36;6.57;;;4.35;;
73776;SDS011;62088;50.240;2.696;2023-05-07T05:21:04;9.63;;;5.13;;
73776;SDS011;62088;50.240;2.696;2023-05-07T05:23:32;10.10;;;5.35;;
73776;SDS011;62088;50.240;2.696;2023-05-07T05:25:59;7.35;;;4.93;;
73776;SDS011;62088;50.240;2.696;2023-05-07T05:28:30;7.28;;;4.90;;
73776;SDS011;62088;50.240;2.696;2023-05-07T05:30:57;9.70;;;4.65;;
73776;SDS011;62088;50.240;2.696;2023-05-07T05:33:26;7.88;;;5.07;;
73776;SDS011;62088;50.240;2.696;2023-05-07T05:38:27;8.00;;;4.70;;
73776;SDS011;62088;50.240;2.696;2023-05-07T05:40:54;7.63;;;4.15;;
73776;SDS011;62088;50.240;2.696;2023-05-07T05:43:22;7.18;;;4.00;;
73776;SDS011;62088;50.240;2.696;2023-05-07T05:45:50;8.35;;;3.95;;
73776;SDS011;62088;50.240;2.696;2023-05-07T05:48:17;10.82;;;4.13;;
73776;SDS011;62088;50.240;2.696;2023-05-07T05:50:44;7.07;;;4.25;;
73776;SDS011;62088;50.240;2.696;2023-05-07T05:53:12;5.97;;;3.47;;
73776;SDS011;62088;50.240;2.696;2023-05-07T05:55:39;8.00;;;4.10;;
73776;SDS011;62088;50.240;2.696;2023-05-07T05:58:06;8.32;;;3.90;;
73776;SDS011;62088;50.240;2.696;2023-05-07T06:00:38;7.82;;;4.03;;
73776;SDS011;62088;50.240;2.696;2023-05-07T06:03:06;6.97;;;3.80;;
73776;SDS011;62088;50.240;2.696;2023-05-07T06:05:34;8.27;;;4.35;;
73776;SDS011;62088;50.240;2.696;2023-05-07T06:08:01;6.28;;;3.97;;
73776;SDS011;62088;50.240;2.696;2023-05-07T06:10:31;6.45;;;4.68;;
73776;SDS011;62088;50.240;2.696;2023-05-07T06:12:59;7.68;;;4.32;;
73776;SDS011;62088;50.240;2.696;2023-05-07T06:15:26;8.70;;;4.65;;
73776;SDS011;62088;50.240;2.696;2023-05-07T06:17:53;8.57;;;4.50;;
73776;SDS011;62088;50.240;2.696;2023-05-07T06:20:23;7.15;;;4.45;;
73776;SDS011;62088;50.240;2.696;2023-05-07T06:22:51;7.93;;;4.53;;
73776;SDS011;62088;50.240;2.696;2023-05-07T06:25:18;8.38;;;4.85;;
73776;SDS011;62088;50.240;2.696;2023-05-07T06:27:45;6.38;;;4.18;;
73776;SDS011;62088;50.240;2.696;2023-05-07T06:30:12;7.90;;;4.97;;
73776;SDS011;62088;50.240;2.696;2023-05-07T06:32:40;6.32;;;3.97;;
73776;SDS011;62088;50.240;2.696;2023-05-07T06:35:08;8.95;;;5.03;;
73776;SDS011;62088;50.240;2.696;2023-05-07T06:37:37;9.02;;;4.78;;
73776;SDS011;62088;50.240;2.696;2023-05-07T06:40:14;8.05;;;5.03;;
73776;SDS011;62088;50.240;2.696;2023-05-07T06:42:43;8.20;;;4.90;;
73776;SDS011;62088;50.240;2.696;2023-05-07T06:45:32;7.70;;;4.50;;
73776;SDS011;62088;50.240;2.696;2023-05-07T06:47:59;9.02;;;5.30;;
73776;SDS011;62088;50.240;2.696;2023-05-07T06:50:28;8.82;;;4.78;;
73776;SDS011;62088;50.240;2.696;2023-05-07T06:52:56;9.30;;;4.93;;
73776;SDS011;62088;50.240;2.696;2023-05-07T06:55:24;8.38;;;4.13;;
73776;SDS011;62088;50.240;2.696;2023-05-07T06:57:52;7.18;;;4.05;;
73776;SDS011;62088;50.240;2.696;2023-05-07T07:00:21;9.18;;;4.30;;
73776;SDS011;62088;50.240;2.696;2023-05-07T07:02:53;5.90;;;4.00;;
73776;SDS011;62088;50.240;2.696;2023-05-07T07:05:24;6.60;;;4.13;;
73776;SDS011;62088;50.240;2.696;2023-05-07T07:07:51;8.13;;;4.00;;
73776;SDS011;62088;50.240;2.696;2023-05-07T07:10:21;10.15;;;4.25;;
73776;SDS011;62088;50.240;2.696;2023-05-07T07:12:50;8.43;;;3.90;;
73776;SDS011;62088;50.240;2.696;2023-05-07T07:15:19;7.95;;;3.95;;
73776;SDS011;62088;50.240;2.696;2023-05-07T07:17:48;8.88;;;3.92;;
73776;SDS011;62088;50.240;2.696;2023-05-07T07:20:15;5.75;;;3.40;;
73776;SDS011;62088;50.240;2.696;2023-05-07T07:22:44;8.70;;;4.43;;
73776;SDS011;62088;50.240;2.696;2023-05-07T07:25:12;7.60;;;3.72;;
73776;SDS011;62088;50.240;2.696;2023-05-07T07:27:39;6.95;;;3.88;;
73776;SDS011;62088;50.240;2.696;2023-05-07T07:30:07;6.72;;;3.63;;
73776;SDS011;62088;50.240;2.696;2023-05-07T07:32:38;8.38;;;3.97;;
73776;SDS011;62088;50.240;2.696;2023-05-07T07:35:05;8.35;;;4.10;;
73776;SDS011;62088;50.240;2.696;2023-05-07T07:37:33;6.93;;;4.03;;
73776;SDS011;62088;50.240;2.696;2023-05-07T07:40:00;7.43;;;4.40;;
73776;SDS011;62088;50.240;2.696;2023-05-07T07:42:27;9.48;;;4.68;;
73776;SDS011;62088;50.240;2.696;2023-05-07T07:44:56;6.32;;;3.70;;
73776;SDS011;62088;50.240;2.696;2023-05-07T07:47:26;6.68;;;4.25;;
73776;SDS011;62088;50.240;2.696;2023-05-07T07:49:53;8.05;;;4.13;;
73776;SDS011;62088;50.240;2.696;2023-05-07T07:52:20;7.72;;;4.68;;
73776;SDS011;62088;50.240;2.696;2023-05-07T07:54:48;8.60;;;5.07;;
73776;SDS011;62088;50.240;2.696;2023-05-07T07:57:15;8.98;;;5.32;;
73776;SDS011;62088;50.240;2.696;2023-05-07T07:59:42;8.18;;;5.38;;
73776;SDS011;62088;50.240;2.696;2023-05-07T08:02:11;8.23;;;5.75;;
73776;SDS011;62088;50.240;2.696;2023-05-07T08:04:38;9.60;;;5.20;;
73776;SDS011;62088;50.240;2.696;2023-05-07T08:07:07;10.45;;;5.75;;
73776;SDS011;62088;50.240;2.696;2023-05-07T08:09:38;9.07;;;5.93;;
73776;SDS011;62088;50.240;2.696;2023-05-07T08:12:07;8.35;;;5.50;;
73776;SDS011;62088;50.240;2.696;2023-05-07T08:14:34;9.63;;;6.18;;
73776;SDS011;62088;50.240;2.696;2023-05-07T08:17:05;7.68;;;5.13;;
73776;SDS011;62088;50.240;2.696;2023-05-07T08:19:33;10.13;;;6.43;;
73776;SDS011;62088;50.240;2.696;2023-05-07T08:22:02;9.10;;;6.30;;
73776;SDS011;62088;50.240;2.696;2023-05-07T08:24:32;11.35;;;5.82;;
73776;SDS011;62088;50.240;2.696;2023-05-07T08:26:59;8.27;;;6.10;;
73776;SDS011;62088;50.240;2.696;2023-05-07T08:29:26;11.52;;;6.15;;
73776;SDS011;62088;50.240;2.696;2023-05-07T08:31:53;13.00;;;6.60;;
73776;SDS011;62088;50.240;2.696;2023-05-07T08:34:21;10.95;;;6.60;;
73776;SDS011;62088;50.240;2.696;2023-05-07T08:36:50;9.93;;;5.68;;
73776;SDS011;62088;50.240;2.696;2023-05-07T08:39:20;12.35;;;6.35;;
73776;SDS011;62088;50.240;2.696;2023-05-07T08:41:49;9.90;;;7.15;;
73776;SDS011;62088;50.240;2.696;2023-05-07T08:44:21;9.18;;;6.22;;
73776;SDS011;62088;50.240;2.696;2023-05-07T08:46:50;12.15;;;6.32;;
73776;SDS011;62088;50.240;2.696;2023-05-07T08:49:20;9.00;;;6.63;;
73776;SDS011;62088;50.240;2.696;2023-05-07T08:51:48;10.77;;;6.78;;
73776;SDS011;62088;50.240;2.696;2023-05-07T08:54:16;12.10;;;6.53;;
73776;SDS011;62088;50.240;2.696;2023-05-07T08:56:44;9.52;;;7.03;;
73776;SDS011;62088;50.240;2.696;2023-05-07T08:59:11;9.77;;;6.78;;
73776;SDS011;62088;50.240;2.696;2023-05-07T09:01:41;9.85;;;7.05;;
73776;SDS011;62088;50.240;2.696;2023-05-07T09:04:08;9.15;;;6.97;;
73776;SDS011;62088;50.240;2.696;2023-05-07T09:06:36;9.27;;;6.63;;
73776;SDS011;62088;50.240;2.696;2023-05-07T09:09:09;7.93;;;6.22;;
73776;SDS011;62088;50.240;2.696;2023-05-07T09:11:44;11.48;;;6.68;;
73776;SDS011;62088;50.240;2.696;2023-05-07T09:14:13;9.93;;;6.60;;
73776;SDS011;62088;50.240;2.696;2023-05-07T09:16:42;10.27;;;5.90;;
73776;SDS011;62088;50.240;2.696;2023-05-07T09:19:09;8.68;;;5.45;;
73776;SDS011;62088;50.240;2.696;2023-05-07T09:21:41;9.93;;;5.50;;
73776;SDS011;62088;50.240;2.696;2023-05-07T09:24:09;7.25;;;4.97;;
73776;SDS011;62088;50.240;2.696;2023-05-07T09:26:39;10.93;;;5.63;;
73776;SDS011;62088;50.240;2.696;2023-05-07T09:29:08;9.60;;;5.03;;
73776;SDS011;62088;50.240;2.696;2023-05-07T09:31:37;11.25;;;4.68;;
73776;SDS011;62088;50.240;2.696;2023-05-07T09:34:07;7.80;;;4.20;;
73776;SDS011;62088;50.240;2.696;2023-05-07T09:36:36;9.52;;;4.85;;
73776;SDS011;62088;50.240;2.696;2023-05-07T09:39:04;6.85;;;4.10;;
73776;SDS011;62088;50.240;2.696;2023-05-07T09:41:31;7.72;;;4.32;;
73776;SDS011;62088;50.240;2.696;2023-05-07T09:44:06;7.40;;;3.70;;
73776;SDS011;62088;50.240;2.696;2023-05-07T09:46:42;7.88;;;4.20;;
73776;SDS011;62088;50.240;2.696;2023-05-07T09:49:22;9.55;;;4.07;;
73776;SDS011;62088;50.240;2.696;2023-05-07T09:51:57;7.88;;;3.95;;
73776;SDS011;62088;50.240;2.696;2023-05-07T09:54:29;9.48;;;4.20;;
73776;SDS011;62088;50.240;2.696;2023-05-07T09:57:01;6.78;;;4.50;;
73776;SDS011;62088;50.240;2.696;2023-05-07T09:59:29;5.78;;;3.92;;
73776;SDS011;62088;50.240;2.696;2023-05-07T10:02:02;7.78;;;4.63;;
73776;SDS011;62088;50.240;2.696;2023-05-07T10:04:35;10.50;;;4.75;;
73776;SDS011;62088;50.240;2.696;2023-05-07T10:07:03;8.60;;;4.50;;
73776;SDS011;62088;50.240;2.696;2023-05-07T10:09:32;7.85;;;4.72;;
73776;SDS011;62088;50.240;2.696;2023-05-07T10:12:02;7.63;;;4.25;;
73776;SDS011;62088;50.240;2.696;2023-05-07T10:14:29;6.70;;;4.80;;
73776;SDS011;62088;50.240;2.696;2023-05-07T10:16:57;6.07;;;4.43;;
73776;SDS011;62088;50.240;2.696;2023-05-07T10:19:26;7.18;;;3.70;;
73776;SDS011;62088;50.240;2.696;2023-05-07T10:21:56;6.22;;;3.45;;
73776;SDS011;62088;50.240;2.696;2023-05-07T10:24:33;6.03;;;3.50;;
73776;SDS011;62088;50.240;2.696;2023-05-07T10:27:09;5.13;;;3.33;;
73776;SDS011;62088;50.240;2.696;2023-05-07T10:32:26;4.63;;;2.83;;
73776;SDS011;62088;50.240;2.696;2023-05-07T10:35:19;5.10;;;2.67;;
73776;SDS011;62088;50.240;2.696;2023-05-07T10:37:49;12.45;;;3.05;;
73776;SDS011;62088;50.240;2.696;2023-05-07T10:40:19;7.18;;;3.03;;
73776;SDS011;62088;50.240;2.696;2023-05-07T10:42:58;6.43;;;3.05;;
73776;SDS011;62088;50.240;2.696;2023-05-07T10:45:32;5.45;;;2.33;;
73776;SDS011;62088;50.240;2.696;2023-05-07T10:51:17;5.82;;;3.25;;
73776;SDS011;62088;50.240;2.696;2023-05-07T10:54:36;5.25;;;2.90;;
73776;SDS011;62088;50.240;2.696;2023-05-07T10:56:54;5.95;;;2.58;;
73776;SDS011;62088;50.240;2.696;2023-05-07T10:59:33;7.32;;;3.00;;
73776;SDS011;62088;50.240;2.696;2023-05-07T11:02:16;7.90;;;2.80;;
73776;SDS011;62088;50.240;2.696;2023-05-07T11:05:24;6.55;;;3.00;;
73776;SDS011;62088;50.240;2.696;2023-05-07T11:08:04;6.45;;;3.00;;
73776;SDS011;62088;50.240;2.696;2023-05-07T11:10:56;6.15;;;2.70;;
73776;SDS011;62088;50.240;2.696;2023-05-07T11:13:51;5.55;;;3.15;;
73776;SDS011;62088;50.240;2.696;2023-05-07T11:16:34;5.68;;;3.08;;
73776;SDS011;62088;50.240;2.696;2023-05-07T11:25:21;5.97;;;3.58;;
73776;SDS011;62088;50.240;2.696;2023-05-07T11:27:55;5.75;;;3.63;;
73776;SDS011;62088;50.240;2.696;2023-05-07T11:30:24;5.80;;;3.78;;
73776;SDS011;62088;50.240;2.696;2023-05-07T11:32:51;7.47;;;3.88;;
73776;SDS011;62088;50.240;2.696;2023-05-07T11:35:19;6.47;;;3.70;;
73776;SDS011;62088;50.240;2.696;2023-05-07T11:37:50;4.93;;;3.33;;
73776;SDS011;62088;50.240;2.696;2023-05-07T11:40:28;4.95;;;3.30;;
73776;SDS011;62088;50.240;2.696;2023-05-07T11:42:55;5.38;;;3.20;;
73776;SDS011;62088;50.240;2.696;2023-05-07T11:45:23;4.50;;;2.70;;
73776;SDS011;62088;50.240;2.696;2023-05-07T11:47:53;6.03;;;3.05;;
73776;SDS011;62088;50.240;2.696;2023-05-07T11:50:21;5.60;;;3.10;;
73776;SDS011;62088;50.240;2.696;2023-05-07T11:52:51;4.07;;;2.72;;
73776;SDS011;62088;50.240;2.696;2023-05-07T11:55:19;5.10;;;2.88;;
73776;SDS011;62088;50.240;2.696;2023-05-07T11:57:46;7.20;;;3.78;;
73776;SDS011;62088;50.240;2.696;2023-05-07T12:00:15;4.60;;;2.92;;
73776;SDS011;62088;50.240;2.696;2023-05-07T12:02:43;4.78;;;2.90;;
73776;SDS011;62088;50.240;2.696;2023-05-07T12:05:12;5.30;;;3.03;;
73776;SDS011;62088;50.240;2.696;2023-05-07T12:07:39;4.57;;;2.75;;
73776;SDS011;62088;50.240;2.696;2023-05-07T12:10:07;5.63;;;3.10;;
73776;SDS011;62088;50.240;2.696;2023-05-07T12:12:40;6.53;;;3.40;;
73776;SDS011;62088;50.240;2.696;2023-05-07T12:15:10;4.75;;;2.65;;
73776;SDS011;62088;50.240;2.696;2023-05-07T12:17:38;4.38;;;2.50;;
73776;SDS011;62088;50.240;2.696;2023-05-07T12:20:07;4.82;;;2.50;;
73776;SDS011;62088;50.240;2.696;2023-05-07T12:22:35;6.28;;;3.03;;
73776;SDS011;62088;50.240;2.696;2023-05-07T12:25:05;4.50;;;2.53;;
73776;SDS011;62088;50.240;2.696;2023-05-07T12:27:36;8.13;;;2.88;;
73776;SDS011;62088;50.240;2.696;2023-05-07T12:30:04;6.00;;;2.60;;
73776;SDS011;62088;50.240;2.696;2023-05-07T12:32:32;6.15;;;2.75;;
73776;SDS011;62088;50.240;2.696;2023-05-07T12:35:03;4.53;;;2.40;;
73776;SDS011;62088;50.240;2.696;2023-05-07T12:37:32;5.75;;;2.33;;
73776;SDS011;62088;50.240;2.696;2023-05-07T12:40:05;4.70;;;2.45;;
73776;SDS011;62088;50.240;2.696;2023-05-07T12:42:37;4.28;;;2.55;;
73776;SDS011;62088;50.240;2.696;2023-05-07T12:45:12;5.07;;;2.40;;
73776;SDS011;62088;50.240;2.696;2023-05-07T12:47:43;5.13;;;2.55;;
73776;SDS011;62088;50.240;2.696;2023-05-07T12:50:15;4.45;;;2.58;;
73776;SDS011;62088;50.240;2.696;2023-05-07T12:52:43;3.90;;;2.08;;
73776;SDS011;62088;50.240;2.696;2023-05-07T12:55:12;4.50;;;1.88;;
73776;SDS011;62088;50.240;2.696;2023-05-07T12:57:42;5.43;;;2.05;;
73776;SDS011;62088;50.240;2.696;2023-05-07T13:00:14;5.10;;;1.98;;
73776;SDS011;62088;50.240;2.696;2023-05-07T13:02:42;4.68;;;1.88;;
73776;SDS011;62088;50.240;2.696;2023-05-07T13:05:11;5.45;;;1.67;;
73776;SDS011;62088;50.240;2.696;2023-05-07T13:07:39;3.55;;;1.50;;
73776;SDS011;62088;50.240;2.696;2023-05-07T13:10:07;4.28;;;1.80;;
73776;SDS011;62088;50.240;2.696;2023-05-07T13:12:34;5.65;;;1.77;;
73776;SDS011;62088;50.240;2.696;2023-05-07T13:15:02;3.72;;;1.85;;
73776;SDS011;62088;50.240;2.696;2023-05-07T13:17:29;4.93;;;1.85;;
73776;SDS011;62088;50.240;2.696;2023-05-07T13:19:57;2.58;;;1.35;;
73776;SDS011;62088;50.240;2.696;2023-05-07T13:22:25;2.83;;;1.40;;
73776;SDS011;62088;50.240;2.696;2023-05-07T13:24:52;3.00;;;1.30;;
73776;SDS011;62088;50.240;2.696;2023-05-07T13:27:18;4.50;;;1.50;;
73776;SDS011;62088;50.240;2.696;2023-05-07T13:29:46;3.97;;;1.50;;
73776;SDS011;62088;50.240;2.696;2023-05-07T13:32:13;4.18;;;1.10;;
73776;SDS011;62088;50.240;2.696;2023-05-07T13:34:40;2.15;;;1.20;;
73776;SDS011;62088;50.240;2.696;2023-05-07T13:37:07;3.90;;;1.45;;
73776;SDS011;62088;50.240;2.696;2023-05-07T13:39:37;2.83;;;1.25;;
73776;SDS011;62088;50.240;2.696;2023-05-07T13:42:04;2.45;;;1.08;;
73776;SDS011;62088;50.240;2.696;2023-05-07T13:44:31;3.22;;;1.40;;
73776;SDS011;62088;50.240;2.696;2023-05-07T13:46:58;6.57;;;1.30;;
73776;SDS011;62088;50.240;2.696;2023-05-07T13:49:25;5.75;;;2.00;;
73776;SDS011;62088;50.240;2.696;2023-05-07T13:51:52;3.15;;;1.45;;
73776;SDS011;62088;50.240;2.696;2023-05-07T13:54:19;2.22;;;1.00;;
73776;SDS011;62088;50.240;2.696;2023-05-07T13:56:46;1.48;;;0.90;;
73776;SDS011;62088;50.240;2.696;2023-05-07T13:59:13;3.63;;;1.30;;
73776;SDS011;62088;50.240;2.696;2023-05-07T14:01:40;3.22;;;1.27;;
73776;SDS011;62088;50.240;2.696;2023-05-07T14:04:08;3.28;;;1.35;;
73776;SDS011;62088;50.240;2.696;2023-05-07T14:06:35;2.95;;;1.30;;
73776;SDS011;62088;50.240;2.696;2023-05-07T14:09:02;3.25;;;1.48;;
73776;SDS011;62088;50.240;2.696;2023-05-07T14:11:29;3.30;;;1.55;;
73776;SDS011;62088;50.240;2.696;2023-05-07T14:13:58;2.70;;;1.40;;
73776;SDS011;62088;50.240;2.696;2023-05-07T14:16:25;5.43;;;1.60;;
73776;SDS011;62088;50.240;2.696;2023-05-07T14:18:52;4.45;;;1.35;;
73776;SDS011;62088;50.240;2.696;2023-05-07T14:21:23;2.78;;;1.30;;
73776;SDS011;62088;50.240;2.696;2023-05-07T14:23:50;3.55;;;1.30;;
73776;SDS011;62088;50.240;2.696;2023-05-07T14:26:17;4.38;;;1.40;;
73776;SDS011;62088;50.240;2.696;2023-05-07T14:28:45;2.35;;;1.20;;
73776;SDS011;62088;50.240;2.696;2023-05-07T14:31:12;4.85;;;1.23;;
73776;SDS011;62088;50.240;2.696;2023-05-07T14:33:39;4.20;;;1.30;;
73776;SDS011;62088;50.240;2.696;2023-05-07T14:36:07;3.75;;;1.50;;
73776;SDS011;62088;50.240;2.696;2023-05-07T14:38:34;3.47;;;1.27;;
73776;SDS011;62088;50.240;2.696;2023-05-07T14:41:02;5.03;;;1.35;;
73776;SDS011;62088;50.240;2.696;2023-05-07T14:43:29;6.55;;;1.80;;
73776;SDS011;62088;50.240;2.696;2023-05-07T14:45:56;7.10;;;1.42;;
73776;SDS011;62088;50.240;2.696;2023-05-07T14:48:23;4.53;;;1.25;;
73776;SDS011;62088;50.240;2.696;2023-05-07T14:50:50;4.50;;;1.48;;
73776;SDS011;62088;50.240;2.696;2023-05-07T14:53:17;3.25;;;1.30;;
73776;SDS011;62088;50.240;2.696;2023-05-07T14:55:44;4.50;;;1.50;;
73776;SDS011;62088;50.240;2.696;2023-05-07T14:58:11;4.25;;;1.45;;
73776;SDS011;62088;50.240;2.696;2023-05-07T15:00:38;4.13;;;1.35;;
73776;SDS011;62088;50.240;2.696;2023-05-07T15:03:06;8.05;;;1.40;;
73776;SDS011;62088;50.240;2.696;2023-05-07T15:05:35;3.42;;;1.40;;
73776;SDS011;62088;50.240;2.696;2023-05-07T15:08:02;3.92;;;1.33;;
73776;SDS011;62088;50.240;2.696;2023-05-07T15:10:29;2.90;;;1.20;;
73776;SDS011;62088;50.240;2.696;2023-05-07T15:12:56;6.07;;;1.70;;